createdAt,value
2019-04-28T00:01:51.305Z,1.92
2019-04-28T00:04:21.465Z,1.90
2019-04-28T00:06:51.539Z,1.70
2019-04-28T00:09:21.363Z,2.22
2019-04-28T00:11:51.724Z,2.20
2019-04-28T00:14:21.921Z,2.10
2019-04-28T00:16:51.205Z,2.47
2019-04-28T00:19:21.045Z,2.15
2019-04-28T00:21:53.898Z,2.12
2019-04-28T00:24:27.790Z,2.58
2019-04-28T00:27:02.667Z,2.35
2019-04-28T00:29:40.357Z,2.45
2019-04-28T00:32:03.108Z,2.85
2019-04-28T00:34:32.203Z,3.22
2019-04-28T00:37:03.091Z,3.47
2019-04-28T00:39:32.378Z,3.72
2019-04-28T00:42:03.363Z,3.20
2019-04-28T00:44:32.786Z,3.90
2019-04-28T00:47:05.110Z,3.50
2019-04-28T00:49:48.886Z,4.05
2019-04-28T00:52:18.688Z,3.60
2019-04-28T00:54:47.594Z,3.92
2019-04-28T00:57:16.496Z,4.62
2019-04-28T00:59:54.255Z,4.92
2019-04-28T01:02:16.910Z,4.65
2019-04-28T01:04:45.481Z,3.70
2019-04-28T01:07:14.035Z,4.72
2019-04-28T01:09:42.622Z,4.03
2019-04-28T01:12:11.641Z,4.30
2019-04-28T01:14:43.376Z,4.50
2019-04-28T01:17:13.004Z,4.20
2019-04-28T01:19:43.572Z,4.70
2019-04-28T01:22:12.299Z,4.40
2019-04-28T01:24:41.848Z,5.20
2019-04-28T01:27:20.289Z,5.20
2019-04-28T01:29:49.887Z,5.08
2019-04-28T01:32:36.198Z,5.87
2019-04-28T01:35:06.626Z,4.67
2019-04-28T01:37:35.694Z,5.20
2019-04-28T01:40:07.063Z,5.42
2019-04-28T01:42:36.095Z,5.55
2019-04-28T01:45:07.897Z,5.78
2019-04-28T01:47:37.104Z,4.85
2019-04-28T01:50:06.394Z,4.12
2019-04-28T01:52:35.675Z,4.47
2019-04-28T01:55:06.233Z,5.30
2019-04-28T01:57:35.624Z,3.95
2019-04-28T02:00:20.057Z,5.30
2019-04-28T02:02:40.640Z,4.85
2019-04-28T02:05:11.472Z,5.37
2019-04-28T02:07:40.951Z,5.30
2019-04-28T02:10:11.646Z,4.53
2019-04-28T02:12:40.737Z,4.55
2019-04-28T02:15:10.446Z,4.85
2019-04-28T02:17:40.218Z,5.55
2019-04-28T02:20:10.496Z,5.00
2019-04-28T02:22:41.177Z,4.62
2019-04-28T02:25:11.220Z,4.50
2019-04-28T02:27:40.308Z,5.33
2019-04-28T02:30:11.367Z,4.95
2019-04-28T02:32:41.332Z,5.53
2019-04-28T02:35:10.996Z,4.53
2019-04-28T02:37:40.801Z,4.35
2019-04-28T02:40:10.586Z,5.00
2019-04-28T02:42:40.983Z,5.17
2019-04-28T02:45:11.626Z,5.30
2019-04-28T02:47:42.070Z,4.45
2019-04-28T02:50:11.957Z,4.62
2019-04-28T02:52:55.730Z,4.45
2019-04-28T02:55:25.599Z,4.95
2019-04-28T02:57:54.929Z,4.42
2019-04-28T03:00:25.242Z,5.03
2019-04-28T03:02:55.254Z,5.35
2019-04-28T03:05:24.575Z,4.25
2019-04-28T03:07:54.200Z,4.80
2019-04-28T03:10:24.366Z,4.65
2019-04-28T03:12:56.253Z,4.05
2019-04-28T03:15:27.197Z,4.80
2019-04-28T03:17:58.341Z,4.20
2019-04-28T03:20:27.470Z,4.62
2019-04-28T03:22:57.455Z,5.00
2019-04-28T03:25:35.706Z,4.40
2019-04-28T03:28:11.794Z,4.12
2019-04-28T03:30:53.285Z,3.80
2019-04-28T03:33:25.677Z,3.95
2019-04-28T03:35:54.378Z,3.67
2019-04-28T03:38:24.691Z,4.33
2019-04-28T03:40:57.874Z,4.17
2019-04-28T03:43:30.643Z,3.47
2019-04-28T03:46:03.595Z,4.22
2019-04-28T03:48:33.706Z,3.45
2019-04-28T03:51:03.526Z,3.83
2019-04-28T03:53:32.972Z,3.72
2019-04-28T03:56:02.417Z,4.47
2019-04-28T03:58:32.069Z,3.62
2019-04-28T04:01:03.205Z,3.60
2019-04-28T04:03:31.807Z,3.20
2019-04-28T04:06:01.345Z,3.72
2019-04-28T04:08:31.158Z,3.20
2019-04-28T04:11:04.895Z,3.65
2019-04-28T04:13:41.739Z,4.20
2019-04-28T04:16:20.537Z,3.05
2019-04-28T04:18:53.748Z,3.33
2019-04-28T04:21:22.000Z,3.37
2019-04-28T04:23:51.895Z,3.30
2019-04-28T04:26:25.139Z,2.75
2019-04-28T04:28:56.329Z,3.08
2019-04-28T04:31:27.630Z,3.20
2019-04-28T04:34:00.697Z,2.42
2019-04-28T04:36:31.193Z,2.15
2019-04-28T04:39:02.780Z,2.80
2019-04-28T04:41:31.880Z,2.08
2019-04-28T04:44:01.371Z,1.90
2019-04-28T04:46:31.404Z,1.98
2019-04-28T04:49:01.015Z,1.85
2019-04-28T04:51:30.827Z,2.00
2019-04-28T04:54:01.536Z,2.25
2019-04-28T04:56:32.187Z,1.80
2019-04-28T04:59:02.777Z,1.90
2019-04-28T05:01:40.740Z,1.90
2019-04-28T05:04:27.140Z,1.82
2019-04-28T05:06:59.690Z,1.92
2019-04-28T05:09:31.049Z,1.60
2019-04-28T05:12:00.545Z,1.87
2019-04-28T05:14:30.396Z,1.92
2019-04-28T05:17:00.816Z,2.05
2019-04-28T05:19:31.189Z,2.05
2019-04-28T05:22:00.355Z,1.85
2019-04-28T05:24:31.151Z,1.42
2019-04-28T05:27:00.328Z,1.55
2019-04-28T05:29:30.625Z,1.47
2019-04-28T05:32:04.168Z,1.55
2019-04-28T05:34:33.455Z,1.30
2019-04-28T05:37:02.902Z,1.30
2019-04-28T05:39:33.660Z,1.02
2019-04-28T05:42:02.895Z,0.98
2019-04-28T05:44:37.561Z,1.22
2019-04-28T05:47:06.060Z,1.35
2019-04-28T05:49:49.812Z,0.90
2019-04-28T05:52:36.683Z,1.25
2019-04-28T05:55:17.511Z,1.02
2019-04-28T05:57:59.848Z,1.07
2019-04-28T06:00:35.453Z,1.42
2019-04-28T06:03:09.725Z,1.20
2019-04-28T06:05:39.499Z,0.90
2019-04-28T06:08:30.354Z,0.78
2019-04-28T06:11:04.543Z,1.10
2019-04-28T06:13:37.953Z,1.07
2019-04-28T06:16:30.234Z,1.32
2019-04-28T06:19:06.341Z,1.52
2019-04-28T06:21:37.847Z,1.62
2019-04-28T06:24:21.129Z,1.55
2019-04-28T06:26:51.610Z,1.90
2019-04-28T06:29:21.476Z,1.60
2019-04-28T06:32:06.823Z,4.97
2019-04-28T06:34:39.688Z,2.12
2019-04-28T06:37:08.637Z,2.25
2019-04-28T06:39:49.474Z,3.50
2019-04-28T06:42:37.050Z,2.58
2019-04-28T06:45:09.498Z,2.70
2019-04-28T06:47:39.091Z,2.55
2019-04-28T06:50:14.321Z,3.25
2019-04-28T06:55:39.024Z,3.30
2019-04-28T06:58:08.552Z,2.80
2019-04-28T07:00:37.317Z,3.10
2019-04-28T07:03:22.610Z,2.67
2019-04-28T07:05:41.926Z,2.65
2019-04-28T07:08:13.974Z,2.10
2019-04-28T07:10:42.577Z,2.65
2019-04-28T07:13:11.134Z,2.40
2019-04-28T07:15:40.010Z,3.30
2019-04-28T07:18:08.525Z,2.85
2019-04-28T07:20:38.988Z,3.10
2019-04-28T07:23:08.814Z,2.92
2019-04-28T07:25:37.386Z,3.45
2019-04-28T07:28:07.113Z,3.50
2019-04-28T07:30:37.542Z,3.02
2019-04-28T07:33:06.726Z,3.45
2019-04-28T07:35:36.214Z,3.22
2019-04-28T07:38:13.146Z,2.77
2019-04-28T07:40:44.230Z,3.40
2019-04-28T07:43:13.162Z,3.20
2019-04-28T07:45:41.740Z,3.30
2019-04-28T07:48:10.256Z,2.92
2019-04-28T07:50:38.905Z,2.87
2019-04-28T07:53:09.201Z,2.92
2019-04-28T07:55:38.049Z,2.70
2019-04-28T07:58:06.921Z,2.92
2019-04-28T08:00:37.938Z,3.10
2019-04-28T08:03:06.907Z,3.10
2019-04-28T08:05:36.310Z,3.72
2019-04-28T08:08:06.489Z,3.55
2019-04-28T08:10:36.382Z,3.08
2019-04-28T08:13:06.226Z,3.98
2019-04-28T08:15:35.759Z,3.17
2019-04-28T08:18:05.358Z,3.60
2019-04-28T08:20:35.190Z,3.70
2019-04-28T08:23:05.138Z,4.10
2019-04-28T08:25:36.385Z,4.22
2019-04-28T08:28:05.493Z,5.85
2019-04-28T08:30:35.401Z,5.30
2019-04-28T08:33:06.406Z,5.00
2019-04-28T08:35:36.835Z,5.60
2019-04-28T08:38:06.825Z,6.00
2019-04-28T08:40:35.777Z,6.12
2019-04-28T08:43:05.596Z,6.90
2019-04-28T08:45:36.462Z,7.65
2019-04-28T08:48:05.790Z,6.55
2019-04-28T08:50:36.423Z,5.03
2019-04-28T08:53:06.473Z,5.25
2019-04-28T08:55:35.797Z,5.65
2019-04-28T08:58:06.057Z,5.95
2019-04-28T09:00:35.034Z,5.50
2019-04-28T09:03:05.257Z,4.70
2019-04-28T09:05:35.096Z,4.80
2019-04-28T09:08:05.718Z,4.10
2019-04-28T09:10:35.839Z,4.67
2019-04-28T09:13:06.245Z,4.72
2019-04-28T09:15:34.954Z,4.50
2019-04-28T09:18:04.033Z,3.85
2019-04-28T09:20:33.106Z,4.58
2019-04-28T09:23:02.171Z,4.72
2019-04-28T09:25:30.907Z,5.90
2019-04-28T09:28:00.229Z,5.10
2019-04-28T09:30:31.110Z,5.95
2019-04-28T09:33:00.023Z,5.50
2019-04-28T09:35:29.039Z,5.75
2019-04-28T09:37:59.221Z,3.62
2019-04-28T09:40:32.466Z,4.97
2019-04-28T09:43:03.846Z,4.12
2019-04-28T09:45:34.650Z,3.40
2019-04-28T09:48:04.734Z,3.52
2019-04-28T09:50:35.144Z,3.75
2019-04-28T09:53:03.922Z,3.52
2019-04-28T09:55:34.219Z,3.40
2019-04-28T09:58:03.987Z,4.53
2019-04-28T10:00:34.332Z,3.50
2019-04-28T10:03:04.813Z,3.70
2019-04-28T10:05:34.808Z,4.58
2019-04-28T10:08:04.770Z,4.85
2019-04-28T10:10:34.381Z,5.25
2019-04-28T10:13:05.561Z,4.37
2019-04-28T10:15:34.177Z,4.30
2019-04-28T10:18:04.667Z,4.08
2019-04-28T10:20:34.263Z,3.75
2019-04-28T10:23:08.374Z,5.00
2019-04-28T10:25:37.447Z,5.53
2019-04-28T10:28:06.592Z,6.67
2019-04-28T10:30:35.816Z,7.12
2019-04-28T10:33:05.207Z,6.28
2019-04-28T10:35:34.146Z,5.90
2019-04-28T10:38:04.635Z,5.92
2019-04-28T10:40:37.538Z,6.62
2019-04-28T10:43:06.250Z,6.10
2019-04-28T10:45:36.672Z,5.17
2019-04-28T10:48:06.667Z,5.62
2019-04-28T10:50:35.606Z,6.58
2019-04-28T10:53:04.887Z,5.47
2019-04-28T10:55:35.114Z,5.65
2019-04-28T10:58:04.366Z,4.17
2019-04-28T11:00:35.654Z,5.45
2019-04-28T11:03:06.016Z,6.50
2019-04-28T11:05:46.925Z,5.40
2019-04-28T11:08:30.017Z,5.50
2019-04-28T11:11:00.669Z,6.40
2019-04-28T11:13:30.030Z,5.90
2019-04-28T11:15:59.285Z,5.40
2019-04-28T11:18:29.290Z,4.87
2019-04-28T11:20:58.200Z,5.05
2019-04-28T11:23:27.030Z,5.65
2019-04-28T11:25:58.783Z,4.60
2019-04-28T11:28:37.749Z,4.15
2019-04-28T11:31:05.454Z,4.45
2019-04-28T11:33:53.741Z,3.80
2019-04-28T11:36:25.099Z,3.85
2019-04-28T11:38:54.258Z,3.25
2019-04-28T11:41:26.697Z,3.20
2019-04-28T11:43:56.615Z,3.92
2019-04-28T11:46:27.270Z,3.90
2019-04-28T11:48:56.942Z,3.77
2019-04-28T11:51:27.043Z,3.25
2019-04-28T11:54:24.170Z,4.45
2019-04-28T11:56:55.198Z,3.22
2019-04-28T11:59:32.803Z,3.40
2019-04-28T12:02:02.129Z,3.10
2019-04-28T12:04:32.007Z,3.05
2019-04-28T12:07:02.016Z,4.22
2019-04-28T12:09:34.498Z,4.28
2019-04-28T12:12:05.116Z,4.87
2019-04-28T12:14:44.125Z,4.72
2019-04-28T12:17:29.660Z,3.67
2019-04-28T12:20:22.693Z,4.22
2019-04-28T12:22:53.578Z,4.72
2019-04-28T12:25:27.202Z,4.15
2019-04-28T12:27:57.591Z,4.40
2019-04-28T12:30:28.643Z,4.37
2019-04-28T12:32:59.028Z,4.37
2019-04-28T12:35:28.938Z,4.08
2019-04-28T12:37:58.938Z,2.62
2019-04-28T12:40:30.066Z,3.35
2019-04-28T12:43:10.426Z,3.52
2019-04-28T12:45:39.025Z,4.00
2019-04-28T12:48:07.934Z,3.75
2019-04-28T12:50:41.139Z,3.52
2019-04-28T12:53:09.922Z,3.77
2019-04-28T12:55:38.597Z,3.50
2019-04-28T12:58:07.493Z,3.83
2019-04-28T13:00:44.081Z,3.90
2019-04-28T13:03:14.287Z,3.80
2019-04-28T13:05:44.582Z,3.92
2019-04-28T13:08:13.149Z,3.90
2019-04-28T13:10:41.794Z,4.70
2019-04-28T13:13:10.422Z,4.53
2019-04-28T13:15:39.006Z,4.67
2019-04-28T13:18:07.870Z,4.58
2019-04-28T13:20:36.763Z,4.17
2019-04-28T13:23:06.330Z,4.40
2019-04-28T13:25:35.618Z,3.50
2019-04-28T13:28:05.654Z,4.50
2019-04-28T13:30:35.692Z,4.12
2019-04-28T13:33:05.740Z,3.65
2019-04-28T13:35:34.998Z,4.10
2019-04-28T13:38:05.395Z,4.95
2019-04-28T13:40:36.497Z,4.55
2019-04-28T13:43:06.191Z,4.87
2019-04-28T13:45:36.249Z,3.95
2019-04-28T13:48:05.860Z,2.80
2019-04-28T13:50:39.752Z,3.67
2019-04-28T13:53:08.954Z,3.47
2019-04-28T13:55:39.340Z,3.27
2019-04-28T13:58:08.366Z,2.85
2019-04-28T14:00:38.806Z,3.25
2019-04-28T14:03:18.407Z,3.67
2019-04-28T14:05:59.078Z,3.10
2019-04-28T14:08:28.587Z,2.58
2019-04-28T14:10:58.260Z,2.90
2019-04-28T14:13:29.545Z,2.72
2019-04-28T14:15:59.604Z,3.70
2019-04-28T14:18:30.075Z,3.53
2019-04-28T14:20:59.401Z,3.20
2019-04-28T14:23:29.403Z,4.03
2019-04-28T14:26:00.314Z,4.15
2019-04-28T14:28:29.517Z,3.20
2019-04-28T14:30:58.751Z,3.98
2019-04-28T14:33:27.967Z,3.77
2019-04-28T14:35:57.455Z,3.77
2019-04-28T14:38:26.833Z,3.90
2019-04-28T14:40:56.032Z,4.40
2019-04-28T14:43:25.223Z,3.45
2019-04-28T14:45:54.913Z,5.00
2019-04-28T14:48:24.380Z,3.40
2019-04-28T14:50:54.067Z,4.20
2019-04-28T14:53:23.381Z,3.40
2019-04-28T14:55:53.655Z,3.52
2019-04-28T14:58:23.987Z,3.25
2019-04-28T15:01:04.111Z,4.12
2019-04-28T15:03:34.381Z,4.12
2019-04-28T15:06:10.313Z,3.50
2019-04-28T15:08:49.468Z,4.00
2019-04-28T15:11:20.247Z,4.22
2019-04-28T15:13:48.961Z,3.47
2019-04-28T15:16:17.485Z,3.87
2019-04-28T15:18:46.517Z,3.50
2019-04-28T15:21:15.282Z,3.92
2019-04-28T15:23:44.347Z,3.75
2019-04-28T15:26:13.292Z,3.58
2019-04-28T15:28:41.933Z,3.40
2019-04-28T15:31:10.959Z,3.60
2019-04-28T15:33:39.636Z,3.60
2019-04-28T15:36:08.766Z,3.47
2019-04-28T15:38:37.642Z,3.53
2019-04-28T15:41:20.556Z,3.70
2019-04-28T15:43:37.054Z,4.30
2019-04-28T15:46:05.773Z,3.57
2019-04-28T15:48:34.333Z,4.03
2019-04-28T15:51:03.091Z,4.40
2019-04-28T15:53:32.591Z,3.50
2019-04-28T15:56:05.582Z,5.00
2019-04-28T15:58:35.785Z,4.23
2019-04-28T16:01:04.837Z,4.20
2019-04-28T16:03:33.440Z,4.33
2019-04-28T16:06:02.057Z,4.17
2019-04-28T16:08:30.685Z,4.13
2019-04-28T16:10:59.417Z,4.50
2019-04-28T16:13:28.246Z,4.37
2019-04-28T16:15:57.308Z,4.22
2019-04-28T16:18:26.930Z,3.83
2019-04-28T16:20:57.094Z,3.60
2019-04-28T16:23:26.152Z,4.20
2019-04-28T16:25:56.267Z,4.05
2019-04-28T16:28:26.654Z,3.92
2019-04-28T16:30:56.882Z,4.03
2019-04-28T16:33:26.117Z,3.50
2019-04-28T16:35:56.201Z,4.30
2019-04-28T16:38:28.374Z,5.00
2019-04-28T16:40:57.664Z,4.12
2019-04-28T16:43:27.336Z,4.87
2019-04-28T16:45:58.712Z,4.00
2019-04-28T16:48:29.763Z,5.00
2019-04-28T16:51:01.631Z,4.40
2019-04-28T16:53:30.416Z,4.22
2019-04-28T16:56:01.827Z,5.47
2019-04-28T16:58:49.115Z,8.65
2019-04-28T17:01:30.768Z,4.80
2019-04-28T17:04:01.304Z,5.05
2019-04-28T17:06:32.981Z,5.15
2019-04-28T17:09:02.398Z,6.42
2019-04-28T17:11:32.338Z,5.55
2019-04-28T17:14:02.805Z,5.28
2019-04-28T17:16:32.538Z,6.10
2019-04-28T17:19:02.182Z,5.85
2019-04-28T17:21:32.470Z,6.08
2019-04-28T17:24:02.438Z,6.47
2019-04-28T17:26:32.163Z,7.58
2019-04-28T17:29:01.583Z,6.20
2019-04-28T17:31:30.882Z,6.75
2019-04-28T17:34:00.288Z,6.50
2019-04-28T17:36:29.574Z,5.87
2019-04-28T17:38:59.856Z,6.17
2019-04-28T17:41:30.255Z,5.95
2019-04-28T17:43:59.700Z,6.55
2019-04-28T17:46:28.794Z,6.30
2019-04-28T17:49:00.958Z,6.75
2019-04-28T17:51:31.810Z,6.03
2019-04-28T17:54:01.239Z,6.20
2019-04-28T17:56:30.504Z,5.60
2019-04-28T17:58:59.970Z,6.28
2019-04-28T18:01:35.977Z,6.00
2019-04-28T18:04:06.337Z,7.53
2019-04-28T18:06:48.591Z,6.20
2019-04-28T18:09:17.238Z,6.55
2019-04-28T18:11:45.871Z,7.50
2019-04-28T18:14:14.453Z,6.53
2019-04-28T18:16:52.448Z,5.50
2019-04-28T18:19:26.259Z,5.83
2019-04-28T18:21:57.011Z,5.47
2019-04-28T18:24:27.454Z,6.25
2019-04-28T18:26:56.867Z,6.05
2019-04-28T18:29:26.401Z,6.90
2019-04-28T18:32:07.126Z,6.67
2019-04-28T18:34:40.282Z,6.28
2019-04-28T18:37:10.484Z,6.53
2019-04-28T18:39:57.848Z,6.40
2019-04-28T18:42:28.441Z,5.80
2019-04-28T18:44:57.574Z,6.55
2019-04-28T18:47:27.023Z,7.40
2019-04-28T18:49:56.924Z,6.70
2019-04-28T18:52:32.350Z,5.97
2019-04-28T18:55:01.038Z,5.78
2019-04-28T18:57:30.072Z,6.15
2019-04-28T18:59:58.897Z,5.92
2019-04-28T19:02:29.665Z,6.85
2019-04-28T19:05:02.322Z,5.47
2019-04-28T19:07:35.775Z,5.97
2019-04-28T19:10:06.623Z,6.83
2019-04-28T19:12:55.854Z,7.10
2019-04-28T19:15:42.780Z,6.00
2019-04-28T19:18:22.917Z,5.65
2019-04-28T19:20:52.406Z,6.03
2019-04-28T19:23:22.712Z,5.15
2019-04-28T19:25:52.878Z,6.05
2019-04-28T19:28:25.301Z,6.37
2019-04-28T19:30:56.913Z,6.12
2019-04-28T19:33:25.921Z,6.25
2019-04-28T19:35:55.744Z,5.92
2019-04-28T19:38:27.523Z,6.85
2019-04-28T19:40:57.167Z,6.75
2019-04-28T19:43:26.673Z,6.25
2019-04-28T19:45:58.855Z,6.45
2019-04-28T19:48:27.575Z,6.40
2019-04-28T19:50:56.227Z,6.50
2019-04-28T19:53:24.862Z,4.92
2019-04-28T19:56:00.878Z,5.70
2019-04-28T19:58:31.286Z,5.40
2019-04-28T20:01:03.950Z,5.53
2019-04-28T20:03:32.557Z,6.12
2019-04-28T20:06:01.162Z,6.47
2019-04-28T20:08:29.853Z,10.90
2019-04-28T20:10:58.468Z,10.70
2019-04-28T20:13:27.054Z,6.30
2019-04-28T20:15:55.988Z,8.15
2019-04-28T20:18:24.689Z,8.30
2019-04-28T20:20:53.674Z,6.70
2019-04-28T20:23:22.529Z,7.15
2019-04-28T20:25:51.396Z,7.00
2019-04-28T20:28:19.954Z,8.25
2019-04-28T20:30:48.517Z,7.72
2019-04-28T20:33:17.078Z,8.65
2019-04-28T20:35:54.163Z,9.08
2019-04-28T20:38:25.144Z,9.63
2019-04-28T20:40:58.583Z,8.70
2019-04-28T20:43:28.782Z,8.98
2019-04-28T20:45:57.865Z,9.10
2019-04-28T20:48:28.596Z,9.63
2019-04-28T20:50:57.581Z,11.28
2019-04-28T20:53:27.679Z,10.10
2019-04-28T20:55:57.001Z,9.00
2019-04-28T20:58:27.286Z,10.00
2019-04-28T21:00:56.627Z,10.23
2019-04-28T21:03:25.878Z,10.20
2019-04-28T21:05:54.930Z,11.65
2019-04-28T21:08:24.539Z,10.30
2019-04-28T21:10:53.976Z,11.78
2019-04-28T21:13:24.674Z,9.78
2019-04-28T21:15:54.721Z,10.32
2019-04-28T21:18:24.095Z,10.40
2019-04-28T21:20:53.496Z,9.90
2019-04-28T21:23:23.365Z,10.00
2019-04-28T21:25:52.536Z,10.50
2019-04-28T21:28:21.938Z,11.35
2019-04-28T21:30:51.070Z,10.45
2019-04-28T21:33:19.799Z,10.08
2019-04-28T21:35:48.881Z,10.65
2019-04-28T21:38:17.435Z,9.93
2019-04-28T21:40:45.999Z,10.43
2019-04-28T21:43:23.237Z,9.68
2019-04-28T21:46:10.167Z,9.98
2019-04-28T21:48:49.409Z,9.75
2019-04-28T21:51:17.993Z,10.58
2019-04-28T21:53:46.555Z,9.53
2019-04-28T21:56:15.139Z,9.10
2019-04-28T21:58:43.689Z,9.45
2019-04-28T22:01:15.893Z,9.33
2019-04-28T22:03:44.547Z,9.53
2019-04-28T22:06:13.170Z,8.45
2019-04-28T22:08:41.750Z,7.90
2019-04-28T22:11:10.312Z,9.55
2019-04-28T22:13:38.890Z,8.50
2019-04-28T22:16:07.782Z,8.75
2019-04-28T22:18:36.361Z,10.72
2019-04-28T22:21:04.986Z,9.58
2019-04-28T22:23:47.374Z,9.18
2019-04-28T22:26:23.604Z,9.03
2019-04-28T22:28:54.360Z,8.43
2019-04-28T22:31:24.093Z,8.13
2019-04-28T22:33:53.779Z,8.48
2019-04-28T22:36:23.173Z,8.20
2019-04-28T22:38:52.950Z,7.83
2019-04-28T22:41:23.214Z,7.35
2019-04-28T22:43:52.342Z,7.95
2019-04-28T22:46:23.619Z,7.70
2019-04-28T22:48:55.480Z,7.90
2019-04-28T22:51:24.849Z,8.30
2019-04-28T22:53:54.574Z,7.97
2019-04-28T22:56:25.912Z,8.25
2019-04-28T22:59:11.154Z,7.58
2019-04-28T23:01:47.682Z,8.83
2019-04-28T23:04:21.880Z,8.15
2019-04-28T23:06:51.711Z,7.25
2019-04-28T23:09:24.226Z,8.13
2019-04-28T23:11:54.057Z,8.08
2019-04-28T23:14:24.061Z,7.22
2019-04-28T23:16:56.863Z,8.60
2019-04-28T23:19:27.489Z,10.05
2019-04-28T23:22:13.011Z,10.58
2019-04-28T23:24:41.853Z,9.50
2019-04-28T23:27:10.413Z,9.33
2019-04-28T23:29:38.992Z,10.18
2019-04-28T23:32:07.613Z,9.65
2019-04-28T23:34:36.198Z,10.68
2019-04-28T23:37:04.823Z,11.00
2019-04-28T23:39:33.536Z,10.60
2019-04-28T23:42:06.389Z,9.70
2019-04-28T23:44:34.973Z,11.12
2019-04-28T23:47:04.506Z,10.08
2019-04-28T23:49:33.217Z,9.53
2019-04-28T23:52:22.581Z,9.65
2019-04-28T23:54:53.811Z,10.98
2019-04-28T23:57:24.263Z,10.23
2019-04-28T23:59:55.149Z,10.50
